Time;durP1;ratioP1;P1;durP2;ratioP2;P2;SDS_P1;SDS_P2;PMS_P1;PMS_P2;Temp;Humidity;BMP_temperature;BMP_pressure;BME280_temperature;BME280_humidity;BME280_pressure;Samples;Min_cycle;Max_cycle;Signal;HPM_P1;HPM_P2
2022/03/10 00:02:10;;;;;;;13.27;8.48;;;4.90;59.80;;;;;;5017545;28;20049;-82
2022/03/10 00:04:36;;;;;;;15.48;8.38;;;4.80;60.10;;;;;;5005291;28;20041;-82
2022/03/10 00:07:05;;;;;;;13.52;6.90;;;4.80;59.80;;;;;;5030235;28;20512;-82
2022/03/10 00:09:34;;;;;;;21.00;8.20;;;4.80;60.10;;;;;;5011485;28;20040;-82
2022/03/10 00:12:01;;;;;;;16.05;7.28;;;4.70;60.80;;;;;;5032076;28;20037;-82
2022/03/10 00:14:26;;;;;;;14.68;8.48;;;4.70;60.20;;;;;;5030227;28;20124;-82
2022/03/10 00:16:52;;;;;;;12.20;6.70;;;4.70;61.60;;;;;;5029538;28;20100;-82
2022/03/10 00:19:18;;;;;;;13.40;7.80;;;4.60;61.80;;;;;;5040967;28;20052;-82
2022/03/10 00:21:49;;;;;;;14.88;8.55;;;4.60;62.50;;;;;;5011843;28;20041;-82
2022/03/10 00:24:15;;;;;;;15.02;8.80;;;4.60;62.30;;;;;;5020254;28;20040;-82
2022/03/10 00:26:42;;;;;;;13.48;7.22;;;4.50;62.10;;;;;;5048211;28;20041;-82
2022/03/10 00:29:08;;;;;;;12.55;7.13;;;4.50;62.70;;;;;;5030539;28;20025;-82
2022/03/10 00:31:34;;;;;;;11.25;6.63;;;4.40;62.20;;;;;;5032278;28;20518;-82
2022/03/10 00:34:00;;;;;;;14.05;6.50;;;4.40;62.90;;;;;;5049685;28;20470;-82
2022/03/10 00:36:26;;;;;;;12.13;7.13;;;4.40;63.10;;;;;;5029775;28;20403;-82
2022/03/10 00:38:52;;;;;;;14.40;7.75;;;4.40;63.60;;;;;;5012287;28;20263;-82
2022/03/10 00:41:18;;;;;;;15.55;7.75;;;4.40;63.80;;;;;;5047659;28;20029;-82
2022/03/10 00:43:44;;;;;;;15.20;8.55;;;4.30;64.60;;;;;;5007988;28;20044;-82
2022/03/10 00:46:10;;;;;;;17.13;8.50;;;4.30;64.10;;;;;;5024897;28;20091;-83
2022/03/10 00:48:36;;;;;;;13.02;7.82;;;4.30;64.20;;;;;;5038105;28;20396;-82
2022/03/10 00:51:03;;;;;;;12.73;7.18;;;4.30;63.70;;;;;;5027563;28;20037;-82
2022/03/10 00:53:28;;;;;;;13.77;6.65;;;4.30;63.00;;;;;;5026930;28;20037;-82
2022/03/10 00:55:54;;;;;;;14.07;7.60;;;4.20;63.50;;;;;;5032004;28;20071;-82
2022/03/10 00:58:20;;;;;;;12.65;7.63;;;4.10;62.80;;;;;;5033223;28;20036;-82
2022/03/10 01:00:46;;;;;;;14.32;7.72;;;4.10;64.20;;;;;;5032889;28;20151;-82
2022/03/10 01:03:12;;;;;;;12.73;6.72;;;4.10;63.80;;;;;;5030222;28;20060;-83
2022/03/10 01:05:37;;;;;;;11.80;6.78;;;4.00;63.30;;;;;;5015486;28;20133;-82
2022/03/10 01:08:03;;;;;;;12.23;7.40;;;4.00;63.90;;;;;;5032556;28;20352;-82
2022/03/10 01:10:29;;;;;;;13.90;7.72;;;4.00;63.90;;;;;;5030825;28;20051;-82
2022/03/10 01:12:55;;;;;;;13.52;8.18;;;3.90;63.70;;;;;;5038021;28;20045;-82
2022/03/10 01:15:23;;;;;;;16.33;8.10;;;3.90;63.60;;;;;;5025690;28;20147;-82
2022/03/10 01:17:49;;;;;;;16.27;8.40;;;3.90;63.90;;;;;;5011809;28;20067;-82
2022/03/10 01:20:17;;;;;;;14.82;8.45;;;3.90;63.50;;;;;;5013366;28;20045;-82
2022/03/10 01:22:42;;;;;;;14.90;8.30;;;3.90;63.00;;;;;;5026407;28;20033;-82
2022/03/10 01:25:09;;;;;;;15.65;8.13;;;3.90;62.70;;;;;;5030968;28;20052;-82
2022/03/10 01:27:35;;;;;;;17.50;8.43;;;3.90;62.60;;;;;;5008717;28;20049;-82
2022/03/10 01:30:03;;;;;;;18.40;9.05;;;3.90;62.90;;;;;;5024550;28;20041;-82
2022/03/10 01:32:28;;;;;;;13.07;7.90;;;3.80;62.20;;;;;;5008249;28;20424;-82
2022/03/10 01:34:54;;;;;;;22.58;8.82;;;3.80;62.10;;;;;;5015380;28;20057;-82
2022/03/10 01:37:20;;;;;;;16.08;8.52;;;3.90;61.80;;;;;;5023510;28;20502;-82
2022/03/10 01:39:46;;;;;;;20.33;8.32;;;3.90;61.90;;;;;;5029544;28;20041;-82
2022/03/10 01:42:12;;;;;;;15.35;8.05;;;3.90;61.90;;;;;;5032104;28;20043;-82
2022/03/10 01:44:38;;;;;;;13.95;7.15;;;3.90;61.60;;;;;;5028025;28;20029;-82
2022/03/10 01:47:05;;;;;;;16.20;8.70;;;3.90;61.40;;;;;;5043849;28;20078;-82
2022/03/10 01:49:34;;;;;;;14.90;9.15;;;3.90;61.10;;;;;;5035600;28;20038;-82
2022/03/10 01:52:01;;;;;;;14.45;7.93;;;3.90;61.20;;;;;;5037228;28;20131;-82
2022/03/10 01:54:27;;;;;;;14.93;7.95;;;3.90;61.40;;;;;;5024751;28;20040;-82
2022/03/10 01:56:53;;;;;;;18.33;8.75;;;3.90;61.10;;;;;;5029757;28;20043;-82
2022/03/10 01:59:20;;;;;;;14.55;8.05;;;3.80;60.70;;;;;;5010668;28;20033;-82
2022/03/10 02:01:46;;;;;;;17.45;8.38;;;3.90;60.80;;;;;;5028298;28;20561;-82
2022/03/10 02:04:12;;;;;;;15.77;7.57;;;3.80;60.80;;;;;;5013539;28;20124;-82
2022/03/10 02:06:38;;;;;;;18.50;8.55;;;3.80;60.60;;;;;;5017218;28;20459;-82
2022/03/10 02:11:49;;;;;;;15.52;8.18;;;3.80;60.70;;;;;;5054504;28;20053;-82
2022/03/10 02:19:45;;;;;;;17.02;8.25;;;3.80;60.80;;;;;;5028813;28;20545;-82
2022/03/10 02:22:12;;;;;;;15.98;8.07;;;3.70;60.90;;;;;;5031801;28;20493;-82
2022/03/10 02:24:40;;;;;;;14.88;8.60;;;3.70;60.90;;;;;;5015746;28;20647;-82
2022/03/10 02:27:20;;;;;;;17.42;9.65;;;3.70;61.10;;;;;;5028483;28;20044;-83
2022/03/10 02:29:52;;;;;;;14.50;8.63;;;3.60;60.90;;;;;;5046251;28;20048;-82
2022/03/10 02:32:18;;;;;;;18.55;8.90;;;3.60;61.00;;;;;;5043727;28;20362;-82
2022/03/10 02:34:45;;;;;;;13.98;8.35;;;3.60;61.10;;;;;;5024817;28;20972;-82
2022/03/10 02:37:11;;;;;;;15.30;8.30;;;3.60;61.20;;;;;;5013350;28;20043;-82
2022/03/10 02:39:38;;;;;;;15.52;8.73;;;3.60;61.40;;;;;;5026665;28;20362;-82
2022/03/10 02:42:05;;;;;;;16.90;9.05;;;3.50;61.40;;;;;;5029346;28;20028;-82
2022/03/10 02:44:31;;;;;;;20.67;9.38;;;3.50;61.60;;;;;;5013005;28;20029;-82
2022/03/10 02:46:56;;;;;;;17.23;8.68;;;3.50;61.20;;;;;;5032771;28;20099;-82
2022/03/10 02:49:22;;;;;;;13.50;8.32;;;3.50;61.30;;;;;;5036052;28;20035;-82
2022/03/10 02:51:49;;;;;;;15.63;8.30;;;3.50;61.30;;;;;;5026511;28;20045;-82
2022/03/10 02:54:14;;;;;;;16.80;8.85;;;3.60;61.30;;;;;;5035598;28;20353;-82
2022/03/10 02:56:40;;;;;;;16.10;8.90;;;3.50;61.20;;;;;;5032571;28;20044;-82
2022/03/10 02:59:06;;;;;;;17.70;8.90;;;3.60;61.50;;;;;;5013273;28;20045;-82
2022/03/10 03:01:31;;;;;;;14.32;8.23;;;3.60;61.30;;;;;;5009548;28;20052;-82
2022/03/10 03:03:57;;;;;;;15.18;8.50;;;3.60;61.20;;;;;;5030770;28;20364;-82
2022/03/10 03:06:23;;;;;;;19.38;8.93;;;3.60;61.20;;;;;;5046296;28;20139;-82
2022/03/10 03:08:49;;;;;;;16.85;8.75;;;3.60;60.90;;;;;;5030394;28;20052;-82
2022/03/10 03:11:15;;;;;;;17.10;9.13;;;3.60;61.00;;;;;;5028497;28;20037;-82
2022/03/10 03:13:40;;;;;;;14.38;8.18;;;3.50;60.90;;;;;;5032483;28;20052;-82
2022/03/10 03:16:06;;;;;;;14.73;8.32;;;3.50;61.30;;;;;;5032987;28;20041;-82
2022/03/10 03:18:33;;;;;;;16.88;8.77;;;3.50;61.20;;;;;;5045238;28;20075;-82
2022/03/10 03:20:59;;;;;;;17.58;8.15;;;3.50;61.20;;;;;;5018502;28;20100;-82
2022/03/10 03:23:24;;;;;;;16.45;8.38;;;3.50;61.20;;;;;;5035432;28;20067;-82
2022/03/10 03:25:51;;;;;;;16.27;8.25;;;3.50;61.70;;;;;;5038255;28;20052;-82
2022/03/10 03:28:19;;;;;;;16.50;8.65;;;3.50;61.40;;;;;;5024503;28;20071;-82
2022/03/10 03:30:45;;;;;;;16.63;8.82;;;3.50;61.60;;;;;;5032511;28;20742;-82
2022/03/10 03:33:10;;;;;;;15.40;8.68;;;3.40;61.80;;;;;;5048045;28;20111;-82
2022/03/10 03:35:36;;;;;;;15.23;8.48;;;3.40;62.00;;;;;;5032525;28;20041;-82
2022/03/10 03:38:02;;;;;;;18.20;9.65;;;3.40;61.90;;;;;;5032466;28;20040;-82
2022/03/10 03:40:27;;;;;;;19.25;9.13;;;3.30;62.20;;;;;;5034213;28;20037;-82
2022/03/10 03:42:53;;;;;;;15.52;8.88;;;3.30;62.50;;;;;;5029767;28;20045;-82
2022/03/10 03:45:18;;;;;;;22.73;9.73;;;3.30;62.40;;;;;;5014088;28;20051;-83
2022/03/10 03:47:44;;;;;;;16.98;9.05;;;3.30;62.50;;;;;;5034577;28;20040;-82
2022/03/10 03:50:11;;;;;;;21.23;9.00;;;3.20;62.60;;;;;;5032020;28;20417;-82
2022/03/10 03:52:37;;;;;;;14.40;7.93;;;3.20;62.90;;;;;;5033130;28;20045;-82
2022/03/10 03:55:02;;;;;;;16.58;8.13;;;3.20;63.10;;;;;;5031711;28;20516;-82
2022/03/10 03:57:28;;;;;;;16.52;8.25;;;3.20;63.50;;;;;;5034931;28;20049;-82
2022/03/10 03:59:54;;;;;;;17.27;9.15;;;3.10;63.30;;;;;;5031223;28;20040;-82
2022/03/10 04:02:20;;;;;;;17.52;8.77;;;3.10;63.40;;;;;;5035258;28;20047;-82
2022/03/10 04:04:45;;;;;;;15.35;7.78;;;3.10;63.30;;;;;;5013361;28;20087;-82
2022/03/10 04:07:11;;;;;;;15.65;8.48;;;3.10;63.60;;;;;;5013940;28;20069;-82
2022/03/10 04:09:36;;;;;;;17.65;9.05;;;3.00;63.70;;;;;;5033522;28;20037;-82
2022/03/10 04:12:02;;;;;;;17.90;8.90;;;3.10;63.50;;;;;;5042765;28;20049;-82
2022/03/10 04:14:28;;;;;;;16.45;8.45;;;3.10;63.70;;;;;;5030520;28;20045;-82
2022/03/10 04:16:54;;;;;;;16.08;8.32;;;3.10;63.40;;;;;;5014075;28;20041;-82
2022/03/10 04:19:20;;;;;;;15.82;8.32;;;3.10;63.60;;;;;;5028325;28;20048;-82
2022/03/10 04:21:45;;;;;;;16.35;8.73;;;3.10;63.70;;;;;;5030936;28;20048;-82
2022/03/10 04:24:11;;;;;;;17.60;8.70;;;3.10;63.70;;;;;;5034815;28;20032;-82
2022/03/10 04:26:38;;;;;;;15.10;7.82;;;3.00;63.90;;;;;;5023269;28;20037;-82
2022/03/10 04:29:04;;;;;;;15.00;8.43;;;3.00;63.90;;;;;;5027650;28;20130;-82
2022/03/10 04:31:29;;;;;;;15.40;8.20;;;3.00;64.00;;;;;;5036084;28;20470;-82
2022/03/10 04:33:55;;;;;;;15.65;7.63;;;3.00;63.80;;;;;;5020985;28;20127;-82
2022/03/10 04:36:21;;;;;;;18.33;8.73;;;2.90;63.90;;;;;;5036590;28;20136;-82
2022/03/10 04:38:46;;;;;;;14.93;8.02;;;2.90;63.90;;;;;;5024757;28;20137;-82
2022/03/10 04:41:12;;;;;;;19.33;8.82;;;2.90;64.30;;;;;;5020389;28;20456;-82
2022/03/10 04:43:38;;;;;;;17.25;9.07;;;2.90;64.50;;;;;;5020339;28;20126;-82
2022/03/10 04:46:04;;;;;;;21.05;8.48;;;2.90;64.50;;;;;;5029562;28;20159;-83
2022/03/10 04:48:30;;;;;;;16.10;8.65;;;2.80;64.30;;;;;;5030575;28;20442;-82
2022/03/10 04:50:56;;;;;;;15.98;8.57;;;2.90;64.70;;;;;;5018910;28;20041;-82
2022/03/10 04:53:22;;;;;;;18.45;8.80;;;2.80;64.70;;;;;;5050381;28;20037;-82
2022/03/10 04:55:47;;;;;;;16.85;7.97;;;2.80;65.40;;;;;;5016176;28;20466;-82
2022/03/10 04:58:14;;;;;;;13.38;8.23;;;2.80;64.90;;;;;;5013984;28;20524;-82
2022/03/10 05:00:39;;;;;;;16.20;8.93;;;2.80;64.80;;;;;;5025656;28;20041;-83
2022/03/10 05:03:05;;;;;;;15.02;7.85;;;2.70;65.00;;;;;;5030562;28;20064;-83
2022/03/10 05:05:31;;;;;;;14.60;8.27;;;2.70;65.10;;;;;;5007072;28;20235;-83
2022/03/10 05:07:56;;;;;;;14.48;8.07;;;2.70;65.30;;;;;;5032683;28;20052;-82
2022/03/10 05:10:22;;;;;;;16.73;8.43;;;2.70;65.40;;;;;;5010135;28;20064;-82
2022/03/10 05:12:57;;;;;;;14.95;8.25;;;2.60;65.50;;;;;;5031350;28;20486;-83
2022/03/10 05:15:28;;;;;;;14.70;8.13;;;2.60;66.10;;;;;;5025986;28;20513;-82
2022/03/10 05:17:54;;;;;;;14.77;8.55;;;2.60;65.90;;;;;;5043961;28;20037;-82
2022/03/10 05:20:20;;;;;;;15.57;8.80;;;2.50;66.20;;;;;;5046665;28;20555;-82
2022/03/10 05:22:51;;;;;;;14.82;8.40;;;2.50;66.40;;;;;;5033764;28;20044;-82
2022/03/10 05:25:18;;;;;;;18.67;8.88;;;2.40;66.70;;;;;;5020416;28;20144;-82
2022/03/10 05:27:44;;;;;;;15.48;8.80;;;2.40;67.00;;;;;;5018853;28;20048;-82
2022/03/10 05:30:11;;;;;;;14.98;7.85;;;2.40;67.50;;;;;;5024148;28;20033;-82
2022/03/10 05:32:37;;;;;;;17.27;8.45;;;2.40;67.40;;;;;;5025438;28;20041;-82
2022/03/10 05:35:04;;;;;;;15.23;8.32;;;2.30;67.50;;;;;;5025605;28;20033;-83
2022/03/10 05:37:30;;;;;;;14.93;8.05;;;2.30;67.60;;;;;;5010392;28;20406;-82
2022/03/10 05:39:56;;;;;;;19.52;8.95;;;2.30;67.70;;;;;;5029095;28;20049;-82
2022/03/10 05:42:22;;;;;;;15.35;8.57;;;2.30;68.10;;;;;;5031068;28;20501;-82
2022/03/10 05:44:48;;;;;;;15.25;7.82;;;2.30;68.00;;;;;;5027347;28;20162;-82
2022/03/10 05:47:14;;;;;;;19.85;9.68;;;2.20;68.50;;;;;;5024004;28;20037;-82
2022/03/10 05:49:39;;;;;;;19.23;8.75;;;2.20;68.40;;;;;;5009782;28;20133;-82
2022/03/10 05:52:05;;;;;;;16.63;8.68;;;2.20;68.30;;;;;;5048719;28;20345;-82
2022/03/10 05:54:32;;;;;;;17.13;9.10;;;2.20;68.50;;;;;;5027744;28;20447;-82
2022/03/10 05:56:58;;;;;;;15.65;8.10;;;2.20;69.20;;;;;;5003343;28;20497;-83
2022/03/10 05:59:24;;;;;;;14.52;7.53;;;2.10;68.90;;;;;;5027614;28;20049;-83
2022/03/10 06:01:49;;;;;;;17.80;9.10;;;2.10;69.30;;;;;;5018260;28;20061;-82
2022/03/10 06:04:16;;;;;;;17.30;8.45;;;2.10;69.80;;;;;;5019512;28;20044;-82
2022/03/10 06:06:44;;;;;;;15.40;8.05;;;2.10;69.90;;;;;;5009543;28;20059;-82
2022/03/10 06:09:10;;;;;;;16.73;8.65;;;2.10;69.70;;;;;;5029100;28;20038;-82
2022/03/10 06:11:37;;;;;;;19.38;9.43;;;2.10;69.90;;;;;;5021228;28;20037;-82
2022/03/10 06:14:03;;;;;;;17.65;8.73;;;2.10;70.00;;;;;;5022881;28;20477;-82
2022/03/10 06:16:28;;;;;;;16.35;7.82;;;2.10;69.80;;;;;;5034826;28;20071;-82
2022/03/10 06:18:54;;;;;;;18.75;8.30;;;2.10;70.00;;;;;;5032092;28;20135;-82
2022/03/10 06:21:21;;;;;;;18.02;8.70;;;2.10;69.90;;;;;;5052889;28;20076;-82
2022/03/10 06:23:47;;;;;;;19.70;9.18;;;2.10;70.00;;;;;;5028281;28;20045;-82
2022/03/10 06:26:13;;;;;;;15.18;8.57;;;2.20;69.90;;;;;;5027647;28;20110;-82
2022/03/10 06:28:39;;;;;;;15.32;7.38;;;2.20;69.80;;;;;;5027797;28;20036;-82
2022/03/10 06:31:05;;;;;;;16.30;8.38;;;2.20;70.30;;;;;;5034818;28;20132;-82
2022/03/10 06:33:30;;;;;;;16.02;9.13;;;2.20;70.00;;;;;;5047256;28;20037;-82
2022/03/10 06:35:56;;;;;;;16.17;7.72;;;2.20;70.00;;;;;;5034066;28;20156;-82
2022/03/10 06:38:22;;;;;;;15.27;8.20;;;2.20;69.90;;;;;;5037220;28;20047;-82
2022/03/10 06:40:48;;;;;;;14.55;8.15;;;2.30;70.10;;;;;;5016900;28;20071;-82
2022/03/10 06:43:15;;;;;;;17.52;9.63;;;2.30;69.60;;;;;;5016550;28;20037;-82
2022/03/10 06:45:41;;;;;;;14.95;8.13;;;2.30;69.20;;;;;;5020248;28;20080;-83
2022/03/10 06:48:07;;;;;;;14.82;8.25;;;2.40;69.30;;;;;;5017086;28;20075;-82
2022/03/10 06:50:32;;;;;;;14.32;8.38;;;2.40;69.00;;;;;;5033140;28;20049;-84
2022/03/10 06:52:58;;;;;;;16.30;8.55;;;2.40;68.80;;;;;;5033289;28;20514;-82
2022/03/10 06:55:25;;;;;;;19.15;8.55;;;2.50;69.10;;;;;;5036829;28;20037;-82
2022/03/10 06:57:52;;;;;;;17.38;8.73;;;2.50;68.80;;;;;;5014590;28;20051;-82
2022/03/10 07:00:18;;;;;;;17.48;8.73;;;2.50;68.40;;;;;;5031793;28;20134;-82
2022/03/10 07:02:44;;;;;;;16.27;8.02;;;2.60;68.30;;;;;;5052919;28;20131;-82
2022/03/10 07:05:10;;;;;;;16.00;8.70;;;2.70;67.80;;;;;;5018306;28;20128;-82
2022/03/10 07:07:35;;;;;;;17.90;8.75;;;2.70;68.10;;;;;;5021210;28;20458;-82
2022/03/10 07:10:01;;;;;;;17.70;8.50;;;2.70;68.30;;;;;;5020479;28;20141;-82
2022/03/10 07:12:27;;;;;;;16.50;9.27;;;2.80;68.40;;;;;;5038783;28;20047;-82
2022/03/10 07:14:53;;;;;;;17.00;8.90;;;2.80;68.10;;;;;;5032140;28;20072;-82
2022/03/10 07:17:19;;;;;;;15.65;8.93;;;2.90;68.00;;;;;;5017436;28;20072;-82
2022/03/10 07:19:45;;;;;;;16.70;8.55;;;2.90;67.70;;;;;;5029015;28;20383;-82
2022/03/10 07:22:16;;;;;;;18.10;8.13;;;3.00;67.60;;;;;;5039093;28;20516;-83
2022/03/10 07:24:41;;;;;;;14.50;7.88;;;3.10;67.60;;;;;;5033145;28;20127;-83
2022/03/10 07:27:07;;;;;;;16.33;7.75;;;3.10;67.00;;;;;;5041559;28;20131;-82
2022/03/10 07:29:33;;;;;;;20.45;8.48;;;3.20;67.10;;;;;;5050045;28;20423;-82
2022/03/10 07:31:59;;;;;;;17.10;8.45;;;3.20;67.30;;;;;;5033230;28;20029;-82
2022/03/10 07:34:24;;;;;;;15.43;8.15;;;3.30;66.90;;;;;;5038603;28;20075;-82
2022/03/10 07:36:50;;;;;;;18.25;7.40;;;3.30;66.80;;;;;;5034526;28;20128;-82
2022/03/10 07:39:16;;;;;;;17.23;8.43;;;3.40;66.50;;;;;;5034342;28;20052;-82
2022/03/10 07:41:41;;;;;;;16.70;8.38;;;3.50;66.60;;;;;;5030600;28;20155;-82
2022/03/10 07:44:07;;;;;;;16.33;8.52;;;3.60;66.10;;;;;;5009571;28;20060;-82
2022/03/10 07:46:33;;;;;;;14.02;7.88;;;3.70;65.70;;;;;;5030006;28;20041;-82
2022/03/10 07:48:59;;;;;;;14.45;8.05;;;3.80;65.40;;;;;;5050279;28;20173;-82
2022/03/10 07:51:24;;;;;;;17.00;8.52;;;3.90;65.60;;;;;;5035835;28;20016;-82
2022/03/10 07:53:50;;;;;;;12.95;7.72;;;3.90;65.40;;;;;;5033521;28;20067;-82
2022/03/10 07:56:16;;;;;;;13.25;6.90;;;4.00;65.40;;;;;;5018567;28;20040;-83
2022/03/10 07:58:41;;;;;;;14.98;8.30;;;4.10;65.40;;;;;;5037185;28;20154;-83
2022/03/10 08:01:07;;;;;;;16.13;8.48;;;4.20;65.20;;;;;;5030711;28;20405;-83
2022/03/10 08:03:33;;;;;;;16.75;8.25;;;4.30;64.80;;;;;;5034425;28;20060;-82
2022/03/10 08:05:58;;;;;;;14.20;7.43;;;4.40;64.60;;;;;;5031512;28;20471;-82
2022/03/10 08:08:24;;;;;;;13.35;7.25;;;4.50;64.00;;;;;;5032031;28;20047;-82
2022/03/10 08:10:49;;;;;;;17.75;8.48;;;4.60;63.70;;;;;;5016232;28;20044;-82
2022/03/10 08:13:15;;;;;;;16.27;8.48;;;4.70;63.50;;;;;;5035305;28;20037;-82
2022/03/10 08:15:43;;;;;;;15.10;8.27;;;4.80;63.20;;;;;;5021262;28;20048;-83
2022/03/10 08:18:09;;;;;;;15.23;8.35;;;4.90;62.80;;;;;;5035123;28;20064;-82
2022/03/10 08:20:35;;;;;;;16.15;8.23;;;5.00;62.70;;;;;;5039889;28;20083;-82
2022/03/10 08:23:02;;;;;;;15.32;7.93;;;5.10;62.70;;;;;;5031314;28;20065;-82
2022/03/10 08:25:28;;;;;;;16.00;7.90;;;5.20;61.60;;;;;;5055014;28;20052;-82
2022/03/10 08:27:53;;;;;;;17.40;8.00;;;5.40;60.80;;;;;;5031233;28;20038;-82
2022/03/10 08:30:19;;;;;;;15.60;7.05;;;5.50;61.80;;;;;;5039379;28;20091;-82
2022/03/10 08:32:45;;;;;;;14.43;7.85;;;5.60;60.10;;;;;;5015242;28;20056;-82
2022/03/10 08:35:11;;;;;;;18.70;9.48;;;5.70;59.90;;;;;;5050073;28;20037;-82
2022/03/10 08:37:39;;;;;;;14.90;8.88;;;5.90;58.80;;;;;;5024460;28;20049;-82
2022/03/10 08:40:06;;;;;;;17.17;7.95;;;5.90;58.70;;;;;;5033266;28;20056;-82
2022/03/10 08:42:31;;;;;;;15.65;7.97;;;6.00;58.50;;;;;;5015810;28;20413;-82
2022/03/10 08:44:57;;;;;;;14.77;7.70;;;6.10;58.60;;;;;;5047875;28;20098;-82
2022/03/10 08:47:22;;;;;;;18.00;8.75;;;6.20;58.40;;;;;;5041795;28;20097;-82
2022/03/10 08:49:48;;;;;;;13.85;7.63;;;6.30;58.20;;;;;;5044809;28;20102;-82
2022/03/10 08:52:14;;;;;;;14.80;8.18;;;6.40;58.20;;;;;;5035382;28;20044;-82
2022/03/10 08:54:39;;;;;;;16.13;8.38;;;6.50;57.90;;;;;;5021285;28;20079;-82
2022/03/10 08:57:05;;;;;;;17.35;8.95;;;6.60;58.20;;;;;;5031223;28;20037;-82
2022/03/10 08:59:31;;;;;;;15.13;8.70;;;6.60;57.70;;;;;;5048115;28;20489;-82
2022/03/10 09:01:57;;;;;;;20.45;9.52;;;6.70;57.50;;;;;;5034605;28;20071;-82
2022/03/10 09:04:23;;;;;;;17.02;8.25;;;6.80;57.70;;;;;;5015082;28;20043;-82
2022/03/10 09:06:48;;;;;;;17.27;9.00;;;6.90;57.60;;;;;;5013770;28;20032;-82
2022/03/10 09:09:16;;;;;;;16.77;8.65;;;7.00;57.30;;;;;;5034361;28;20388;-82
2022/03/10 09:11:42;;;;;;;17.92;8.68;;;7.10;57.40;;;;;;5049346;28;20090;-82
2022/03/10 09:14:07;;;;;;;16.67;8.45;;;7.30;57.40;;;;;;5015933;28;20041;-82
2022/03/10 09:16:33;;;;;;;18.52;8.65;;;7.40;57.00;;;;;;5048889;28;20439;-82
2022/03/10 09:19:00;;;;;;;16.40;8.70;;;7.50;56.90;;;;;;5012405;28;20131;-82
2022/03/10 09:21:26;;;;;;;16.52;9.23;;;7.60;57.10;;;;;;5031116;28;20046;-83
2022/03/10 09:23:52;;;;;;;12.95;7.97;;;7.70;56.30;;;;;;5030258;28;20095;-83
2022/03/10 09:26:18;;;;;;;16.77;9.75;;;7.80;56.40;;;;;;5017005;28;20051;-83
2022/03/10 09:28:45;;;;;;;17.85;9.52;;;7.90;55.80;;;;;;5018801;28;20128;-83
2022/03/10 09:31:12;;;;;;;17.08;9.27;;;8.00;55.50;;;;;;5026592;28;20439;-83
2022/03/10 09:33:42;;;;;;;14.65;8.30;;;8.20;55.30;;;;;;5048823;28;20120;-83
2022/03/10 09:36:08;;;;;;;16.02;8.10;;;8.30;54.40;;;;;;5033282;28;20776;-83
2022/03/10 09:38:33;;;;;;;15.85;8.35;;;8.40;53.40;;;;;;5030947;28;20409;-83
2022/03/10 09:40:59;;;;;;;15.90;9.07;;;8.50;53.30;;;;;;5008823;28;20068;-83
2022/03/10 09:43:28;;;;;;;15.95;8.88;;;8.60;52.30;;;;;;5034406;28;20041;-83
2022/03/10 09:45:54;;;;;;;15.50;9.23;;;8.70;52.70;;;;;;5034859;28;20501;-83
2022/03/10 09:48:20;;;;;;;15.77;8.77;;;8.70;52.30;;;;;;5016338;28;20106;-83
2022/03/10 09:50:47;;;;;;;16.02;8.15;;;8.80;52.50;;;;;;5034278;28;20044;-83
2022/03/10 09:53:12;;;;;;;16.00;9.05;;;8.90;52.10;;;;;;5014920;28;20043;-83
2022/03/10 09:55:38;;;;;;;17.92;9.65;;;9.00;51.60;;;;;;5045363;28;20159;-83
2022/03/10 09:58:05;;;;;;;16.27;9.20;;;9.10;52.20;;;;;;5035266;28;20051;-83
2022/03/10 10:00:31;;;;;;;15.35;8.95;;;9.20;52.40;;;;;;5026002;28;20072;-82
2022/03/10 10:02:59;;;;;;;17.38;9.43;;;9.40;52.10;;;;;;5028161;28;20133;-82
2022/03/10 10:05:28;;;;;;;18.33;9.32;;;9.50;51.70;;;;;;5035248;28;20089;-82
2022/03/10 10:08:20;;;;;;;15.80;8.13;;;9.60;50.90;;;;;;5013015;28;20037;-82
2022/03/10 10:10:50;;;;;;;14.10;7.80;;;9.70;51.40;;;;;;5029382;28;21941;-82
2022/03/10 10:13:42;;;;;;;18.45;9.18;;;9.80;51.20;;;;;;5017606;28;20036;-82
2022/03/10 10:16:11;;;;;;;18.40;8.88;;;9.90;50.70;;;;;;5038566;28;20048;-82
2022/03/10 10:18:38;;;;;;;17.50;8.63;;;10.00;50.50;;;;;;5032184;28;20112;-82
2022/03/10 10:21:05;;;;;;;16.45;9.60;;;10.10;50.30;;;;;;5014389;28;20480;-82
2022/03/10 10:23:33;;;;;;;17.90;9.13;;;10.20;50.50;;;;;;5014723;28;20041;-82
2022/03/10 10:26:11;;;;;;;16.00;8.93;;;10.20;50.70;;;;;;5013930;28;20105;-82
2022/03/10 10:28:42;;;;;;;18.27;9.82;;;10.30;50.30;;;;;;5012477;28;20071;-82
2022/03/10 10:31:12;;;;;;;17.15;9.02;;;10.50;49.70;;;;;;5026274;28;20427;-82
2022/03/10 10:33:42;;;;;;;15.68;9.52;;;10.60;49.30;;;;;;5011358;28;20041;-83
2022/03/10 10:36:29;;;;;;;16.33;9.90;;;10.70;49.70;;;;;;5013029;28;20052;-83
2022/03/10 10:39:13;;;;;;;17.75;10.00;;;10.80;49.80;;;;;;5035991;28;20112;-83
2022/03/10 10:41:40;;;;;;;17.83;10.00;;;10.90;49.70;;;;;;5027860;28;20053;-83
2022/03/10 10:44:16;;;;;;;18.45;10.05;;;11.00;49.70;;;;;;5015272;28;20068;-82
2022/03/10 10:46:46;;;;;;;16.58;9.60;;;11.10;49.00;;;;;;5029434;28;20064;-82
2022/03/10 10:49:14;;;;;;;19.00;9.88;;;11.30;48.90;;;;;;5026687;28;20120;-82
2022/03/10 10:51:48;;;;;;;18.15;9.43;;;11.30;48.70;;;;;;5033753;28;20038;-82
2022/03/10 10:54:20;;;;;;;20.50;10.32;;;11.50;48.30;;;;;;5030011;28;20041;-82
2022/03/10 10:56:53;;;;;;;15.48;9.40;;;11.50;47.90;;;;;;5030523;28;20053;-83
2022/03/10 10:59:34;;;;;;;15.75;9.05;;;11.60;47.70;;;;;;5032186;28;20110;-82
2022/03/10 11:02:11;;;;;;;17.00;9.55;;;11.80;47.40;;;;;;5043704;28;20053;-82
2022/03/10 11:04:41;;;;;;;19.02;9.80;;;11.90;47.70;;;;;;5020856;28;20482;-83
2022/03/10 11:07:11;;;;;;;17.88;9.63;;;12.00;47.60;;;;;;5032034;28;20036;-83
2022/03/10 11:09:38;;;;;;;16.17;9.82;;;12.10;46.80;;;;;;5053586;28;20048;-83
2022/03/10 11:12:04;;;;;;;19.38;10.40;;;12.30;47.20;;;;;;5022880;28;20051;-83
2022/03/10 11:14:31;;;;;;;18.17;9.57;;;12.40;47.20;;;;;;5035191;28;20119;-83
2022/03/10 11:16:58;;;;;;;19.58;11.20;;;12.50;47.10;;;;;;5034573;28;20056;-83
2022/03/10 11:19:26;;;;;;;18.95;10.35;;;12.60;46.90;;;;;;5026878;28;20486;-82
2022/03/10 11:21:58;;;;;;;19.23;10.20;;;12.70;46.70;;;;;;5033759;28;20033;-83
2022/03/10 11:24:38;;;;;;;;;;;12.80;46.50;;;;;;5031987;28;20063;-82
2022/03/10 11:27:10;;;;;;;21.95;10.90;;;12.90;45.60;;;;;;5050653;28;19928;-83
2022/03/10 11:29:36;;;;;;;20.88;10.93;;;12.90;46.40;;;;;;5050631;28;20033;-83
2022/03/10 11:32:05;;;;;;;18.98;10.40;;;13.00;45.70;;;;;;5017728;28;20508;-83
2022/03/10 11:34:52;;;;;;;19.38;11.25;;;13.10;45.40;;;;;;5032831;28;20041;-83
2022/03/10 11:37:47;;;;;;;21.10;11.00;;;13.20;45.20;;;;;;5015441;28;20049;-83
2022/03/10 11:40:16;;;;;;;18.05;10.48;;;13.30;44.90;;;;;;5033215;28;20052;-83
2022/03/10 11:42:42;;;;;;;18.23;10.15;;;13.40;43.90;;;;;;5030413;28;20139;-83
2022/03/10 11:45:15;;;;;;;16.48;10.20;;;13.40;44.40;;;;;;5016074;28;20096;-83
2022/03/10 11:47:41;;;;;;;19.63;10.82;;;13.50;44.70;;;;;;5014715;28;20135;-83
2022/03/10 11:50:22;;;;;;;20.02;11.73;;;13.70;44.90;;;;;;5015324;28;20116;-83
2022/03/10 11:53:06;;;;;;;19.05;10.93;;;13.70;43.80;;;;;;5044404;28;20047;-83
2022/03/10 11:55:43;;;;;;;21.65;11.45;;;13.90;43.20;;;;;;5033337;28;20037;-83
2022/03/10 11:58:13;;;;;;;20.27;12.07;;;13.90;43.40;;;;;;5032508;28;20037;-83
2022/03/10 12:00:44;;;;;;;19.25;10.95;;;14.00;43.50;;;;;;5033976;28;20045;-83
2022/03/10 12:03:36;;;;;;;19.95;11.25;;;14.10;43.50;;;;;;5015215;28;20122;-83
2022/03/10 12:06:07;;;;;;;18.20;10.90;;;14.30;42.80;;;;;;5035491;28;20042;-83
2022/03/10 12:08:35;;;;;;;19.17;11.43;;;14.40;42.60;;;;;;4993769;28;20037;-83
2022/03/10 12:11:06;;;;;;;21.35;11.73;;;14.50;42.90;;;;;;5036909;28;20060;-83
2022/03/10 12:13:36;;;;;;;19.02;11.48;;;14.60;42.20;;;;;;5049206;28;20087;-83
2022/03/10 12:16:26;;;;;;;19.20;10.90;;;14.80;42.40;;;;;;5007543;28;20103;-82
2022/03/10 12:18:59;;;;;;;20.75;11.25;;;14.90;42.20;;;;;;5032562;28;20045;-82
2022/03/10 12:21:30;;;;;;;18.75;10.65;;;15.20;41.80;;;;;;5011414;28;20033;-82
2022/03/10 12:24:05;;;;;;;20.52;11.07;;;15.40;40.00;;;;;;5015124;28;20040;-82
2022/03/10 12:26:36;;;;;;;17.27;10.52;;;15.70;40.90;;;;;;5034180;28;20055;-82
2022/03/10 12:29:05;;;;;;;17.43;10.77;;;16.10;40.10;;;;;;5016155;28;20100;-82
2022/03/10 12:31:35;;;;;;;18.13;10.23;;;16.70;39.80;;;;;;5037978;28;20125;-82
2022/03/10 12:34:25;;;;;;;15.60;9.95;;;17.20;38.60;;;;;;5032968;28;20037;-82
2022/03/10 12:36:51;;;;;;;16.10;10.18;;;17.50;37.50;;;;;;5049294;28;20049;-82
2022/03/10 12:39:26;;;;;;;17.63;10.05;;;17.90;38.40;;;;;;5029772;28;20064;-82
2022/03/10 12:42:00;;;;;;;18.90;10.45;;;18.10;36.70;;;;;;5046861;28;20053;-83
2022/03/10 12:44:25;;;;;;;19.50;9.55;;;18.30;36.20;;;;;;5030737;28;20079;-83
2022/03/10 12:46:53;;;;;;;16.90;10.50;;;18.50;36.10;;;;;;5014980;28;20049;-83
2022/03/10 12:49:30;;;;;;;16.80;10.63;;;18.80;35.70;;;;;;5024777;28;20105;-83
2022/03/10 12:51:57;;;;;;;17.88;10.68;;;19.10;35.50;;;;;;5031103;28;20099;-83
2022/03/10 12:54:25;;;;;;;17.45;10.85;;;19.30;34.80;;;;;;5031860;28;20123;-83